Time;durP1;ratioP1;P1;durP2;ratioP2;P2;SDS_P1;SDS_P2;PMS_P1;PMS_P2;Temp;Humidity;BMP_temperature;BMP_pressure;BME280_temperature;BME280_humidity;BME280_pressure;Samples;Min_cycle;Max_cycle;Signal;HPM_P1;HPM_P2
2022/10/20 00:00:54;;;;;;;;;;;;;;;20.49;62.60;101181.25;7402297;19;1676;-34
2022/10/20 00:03:23;;;;;;;;;;;;;;;20.55;62.55;101198.69;7406481;19;1816;-35
2022/10/20 00:05:55;;;;;;;;;;;;;;;20.52;62.53;101189.06;7405733;19;1773;-35
2022/10/20 00:08:26;;;;;;;;;;;;;;;20.53;62.71;101204.22;7402674;19;1557;-36
2022/10/20 00:11:06;;;;;;;;;;;;;;;20.48;62.77;101190.31;7402580;19;1631;-35
2022/10/20 00:13:57;;;;;;;;;;;;;;;20.50;62.87;101185.66;7403346;19;1597;-36
2022/10/20 00:16:30;;;;;;;;;;;;;;;20.55;63.14;101196.84;7404168;19;1820;-35
2022/10/20 00:19:00;;;;;;;;;;;;;;;20.45;62.78;101174.44;7404691;19;1957;-34
2022/10/20 00:21:31;;;;;;;;;;;;;;;20.47;62.95;101183.22;7406725;19;1910;-34
2022/10/20 00:24:01;;;;;;;;;;;;;;;20.42;62.60;101169.38;7406168;19;1579;-34
2022/10/20 00:26:39;;;;;;;;;;;;;;;20.40;62.74;101165.97;7406082;19;1586;-36
2022/10/20 00:29:18;;;;;;;;;;;;;;;20.41;62.77;101171.22;7405846;19;1694;-35
2022/10/20 00:31:57;;;;;;;;;;;;;;;20.39;62.89;101180.38;7405749;19;1650;-34
2022/10/20 00:34:29;;;;;;;;;;;;;;;20.42;62.67;101185.47;7405634;19;1801;-35
2022/10/20 00:37:18;;;;;;;;;;;;;;;20.39;62.39;101186.63;7405133;19;1691;-35
2022/10/20 00:39:49;;;;;;;;;;;;;;;20.36;62.58;101175.28;7403135;19;1855;-35
2022/10/20 00:42:20;;;;;;;;;;;;;;;20.34;62.50;101183.47;7405764;19;1026;-35
2022/10/20 00:44:54;;;;;;;;;;;;;;;20.39;62.51;101183.94;7405193;19;1772;-35
2022/10/20 00:47:34;;;;;;;;;;;;;;;20.34;62.31;101182.63;7404373;19;2035;-35
2022/10/20 00:50:10;;;;;;;;;;;;;;;20.33;62.58;101188.97;7403076;19;1653;-34
2022/10/20 00:52:41;;;;;;;;;;;;;;;20.34;62.37;101182.63;7401281;19;2036;-35
2022/10/20 00:55:31;;;;;;;;;;;;;;;20.35;62.36;101184.31;7404210;19;1904;-36
2022/10/20 00:58:06;;;;;;;;;;;;;;;20.34;62.39;101204.09;7404377;19;1872;-35
2022/10/20 01:00:48;;;;;;;;;;;;;;;20.30;62.34;101208.88;7405127;19;1700;-34
2022/10/20 01:06:05;;;;;;;;;;;;;;;21.41;60.06;101177.53;7402313;19;2197;-35
2022/10/20 01:09:02;;;;;;;;;;;;;;;21.20;60.55;101174.97;7402752;19;1777;-34
2022/10/20 01:11:41;;;;;;;;;;;;;;;21.77;59.18;101173.28;7403506;19;1589;-34
2022/10/20 01:17:08;;;;;;;;;;;;;;;21.39;60.80;101161.53;7399995;19;2287;-36
2022/10/20 01:19:49;;;;;;;;;;;;;;;21.00;61.59;101164.19;7401655;19;2062;-34
2022/10/20 01:22:50;;;;;;;;;;;;;;;21.49;60.09;101175.03;7401880;19;1817;-34
2022/10/20 01:25:24;;;;;;;;;;;;;;;21.66;59.32;101173.44;7402721;19;1623;-36
2022/10/20 01:28:14;;;;;;;;;;;;;;;21.69;59.73;101186.63;7403578;19;1932;-35
2022/10/20 01:30:49;;;;;;;;;;;;;;;21.24;60.65;101195.22;7404090;19;1903;-35
2022/10/20 01:33:29;;;;;;;;;;;;;;;21.13;60.98;101195.31;7403245;19;1538;-34
2022/10/20 01:36:09;;;;;;;;;;;;;;;21.48;59.99;101200.22;7402867;19;1365;-35
2022/10/20 01:38:45;;;;;;;;;;;;;;;21.55;59.74;101205.91;7401724;19;1851;-35
2022/10/20 01:41:22;;;;;;;;;;;;;;;21.39;60.51;101204.59;7402007;19;1679;-34
2022/10/20 01:44:00;;;;;;;;;;;;;;;21.14;61.08;101207.81;7402068;19;1752;-34
2022/10/20 01:46:39;;;;;;;;;;;;;;;21.18;60.76;101211.91;7401969;19;1585;-34
2022/10/20 01:49:11;;;;;;;;;;;;;;;21.54;59.95;101209.56;7401854;19;1754;-34
2022/10/20 01:51:39;;;;;;;;;;;;;;;21.32;60.56;101203.44;7403667;19;1098;-35
2022/10/20 01:54:21;;;;;;;;;;;;;;;21.13;60.74;101206.09;7402725;19;1901;-34
2022/10/20 01:57:01;;;;;;;;;;;;;;;21.19;60.86;101184.03;7402422;19;1847;-35
2022/10/20 01:59:42;;;;;;;;;;;;;;;21.43;60.17;101197.97;7400970;19;1925;-35
2022/10/20 02:02:21;;;;;;;;;;;;;;;21.37;60.55;101198.50;7389793;19;3557;-60
2022/10/20 02:04:55;;;;;;;;;;;;;;;21.21;60.51;101198.19;7403585;19;1615;-59
2022/10/20 02:07:26;;;;;;;;;;;;;;;21.09;60.86;101205.53;7404263;19;1429;-63
2022/10/20 02:09:56;;;;;;;;;;;;;;;21.48;59.84;101205.59;7404267;19;1162;-63
2022/10/20 02:12:27;;;;;;;;;;;;;;;21.61;59.53;101216.09;7406385;19;1525;-63
2022/10/20 02:14:58;;;;;;;;;;;;;;;21.45;60.18;101222.88;7404830;19;1545;-59
2022/10/20 02:17:26;;;;;;;;;;;;;;;21.30;59.90;101229.63;7405091;19;1633;-59
2022/10/20 02:19:55;;;;;;;;;;;;;;;21.13;60.37;101222.22;7402867;19;1863;-63
2022/10/20 02:22:24;;;;;;;;;;;;;;;21.44;59.88;101231.94;7402519;19;1619;-63
2022/10/20 02:24:53;;;;;;;;;;;;;;;21.49;59.60;101239.59;7404780;19;1627;-59
2022/10/20 02:27:24;;;;;;;;;;;;;;;21.33;60.44;101229.34;7405575;19;972;-59
2022/10/20 02:29:56;;;;;;;;;;;;;;;21.22;60.49;101246.44;7403311;19;1493;-59
2022/10/20 02:32:27;;;;;;;;;;;;;;;21.43;59.83;101235.63;7403465;19;1427;-62
2022/10/20 02:34:55;;;;;;;;;;;;;;;21.52;59.50;101243.84;7405697;19;1011;-63
2022/10/20 02:37:24;;;;;;;;;;;;;;;21.32;60.09;101254.53;7403150;19;1533;-59
2022/10/20 02:39:52;;;;;;;;;;;;;;;21.23;60.22;101260.78;7402307;19;1860;-63
2022/10/20 02:42:22;;;;;;;;;;;;;;;21.35;59.73;101243.53;7404020;19;1359;-60
2022/10/20 02:44:51;;;;;;;;;;;;;;;21.69;58.87;101262.00;7403291;19;1340;-63
2022/10/20 02:47:19;;;;;;;;;;;;;;;21.43;59.96;101267.91;7402672;19;1434;-59
2022/10/20 02:49:50;;;;;;;;;;;;;;;21.24;60.17;101260.63;7402937;19;1487;-59
2022/10/20 02:52:19;;;;;;;;;;;;;;;21.10;60.59;101269.06;7404624;19;1541;-63
2022/10/20 02:54:47;;;;;;;;;;;;;;;21.53;59.11;101272.47;7404071;19;1596;-64
2022/10/20 02:57:16;;;;;;;;;;;;;;;21.53;59.00;101265.25;7405082;19;1529;-59
2022/10/20 02:59:44;;;;;;;;;;;;;;;21.37;59.72;101264.91;7401590;19;1847;-63
2022/10/20 03:02:12;;;;;;;;;;;;;;;21.29;59.60;101270.09;7401734;19;1902;-63
2022/10/20 03:04:41;;;;;;;;;;;;;;;21.43;59.38;101278.69;7402972;19;1344;-63
2022/10/20 03:07:12;;;;;;;;;;;;;;;21.75;58.64;101276.72;7400924;19;1899;-59
2022/10/20 03:09:40;;;;;;;;;;;;;;;21.40;60.02;101286.13;7400974;19;1525;-59
2022/10/20 03:12:08;;;;;;;;;;;;;;;21.25;59.69;101281.16;7401681;19;1663;-63
2022/10/20 03:14:37;;;;;;;;;;;;;;;21.19;59.96;101310.44;7405565;19;1691;-64
2022/10/20 03:17:05;;;;;;;;;;;;;;;21.57;59.08;101307.03;7410121;19;1567;-60
2022/10/20 03:19:33;;;;;;;;;;;;;;;21.54;58.92;101317.22;7409255;19;1849;-63
2022/10/20 03:22:02;;;;;;;;;;;;;;;21.50;59.46;101326.56;7411071;19;1550;-59
2022/10/20 03:24:32;;;;;;;;;;;;;;;21.36;59.27;101304.38;7411743;19;979;-64
2022/10/20 03:27:01;;;;;;;;;;;;;;;21.16;60.01;101313.41;7410094;19;1724;-63
2022/10/20 03:29:29;;;;;;;;;;;;;;;21.55;59.04;101311.69;7407912;19;1545;-64
2022/10/20 03:31:57;;;;;;;;;;;;;;;21.54;58.71;101312.66;7409771;19;1348;-60
2022/10/20 03:34:26;;;;;;;;;;;;;;;21.34;59.74;101318.97;7409401;19;1534;-60
2022/10/20 03:36:54;;;;;;;;;;;;;;;21.27;59.61;101329.44;7408597;19;1350;-63
2022/10/20 03:39:23;;;;;;;;;;;;;;;21.44;59.36;101339.56;7408391;19;1877;-63
2022/10/20 03:41:56;;;;;;;;;;;;;;;21.68;58.55;101322.19;7408067;19;1673;-63
2022/10/20 03:44:24;;;;;;;;;;;;;;;21.65;58.48;101333.25;7409364;19;1617;-60
2022/10/20 03:46:52;;;;;;;;;;;;;;;21.60;58.86;101325.56;7408833;19;1185;-60
2022/10/20 03:49:21;;;;;;;;;;;;;;;21.43;59.37;101340.56;7406422;19;1463;-63
2022/10/20 03:51:49;;;;;;;;;;;;;;;21.22;60.03;101339.75;7408052;19;1541;-60
2022/10/20 03:54:18;;;;;;;;;;;;;;;21.67;58.85;101339.34;7408992;19;1573;-64
2022/10/20 03:56:46;;;;;;;;;;;;;;;21.62;58.80;101330.81;7408280;19;1775;-64
2022/10/20 03:59:17;;;;;;;;;;;;;;;21.54;59.44;101330.66;7409098;19;1850;-60
2022/10/20 04:01:46;;;;;;;;;;;;;;;21.44;59.36;101333.34;7407939;19;1772;-60
2022/10/20 04:04:15;;;;;;;;;;;;;;;21.21;59.73;101330.00;7410479;19;1566;-64
2022/10/20 04:06:43;;;;;;;;;;;;;;;21.67;58.59;101355.50;7407580;19;1649;-60
2022/10/20 04:09:11;;;;;;;;;;;;;;;21.61;58.79;101337.22;7404842;19;1557;-61
2022/10/20 04:11:40;;;;;;;;;;;;;;;21.49;59.39;101341.84;7409000;19;1619;-60
2022/10/20 04:14:08;;;;;;;;;;;;;;;21.32;59.48;101355.94;7409272;19;1578;-64
2022/10/20 04:16:40;;;;;;;;;;;;;;;21.19;59.77;101354.34;7406127;19;1765;-64
2022/10/20 04:19:09;;;;;;;;;;;;;;;21.63;58.77;101349.53;7408246;19;1850;-59
2022/10/20 04:21:37;;;;;;;;;;;;;;;21.67;58.47;101343.88;7408535;19;1272;-63
2022/10/20 04:24:06;;;;;;;;;;;;;;;21.59;59.16;101333.81;7406786;19;1606;-62
2022/10/20 04:26:34;;;;;;;;;;;;;;;21.48;59.28;101347.38;7407684;19;1197;-58
2022/10/20 04:29:03;;;;;;;;;;;;;;;21.43;59.33;101353.16;7407280;19;1768;-61
2022/10/20 04:31:31;;;;;;;;;;;;;;;21.77;58.71;101356.34;7408490;19;1477;-63
2022/10/20 04:34:02;;;;;;;;;;;;;;;21.81;58.62;101352.38;7407568;19;1676;-62
2022/10/20 04:36:31;;;;;;;;;;;;;;;21.59;59.08;101369.63;7409744;19;1246;-63
2022/10/20 04:38:59;;;;;;;;;;;;;;;21.43;59.39;101370.16;7408461;19;1608;-64
2022/10/20 04:41:27;;;;;;;;;;;;;;;21.49;59.27;101373.28;7404467;19;1961;-60
2022/10/20 04:43:56;;;;;;;;;;;;;;;21.65;58.36;101363.69;7402142;19;1479;-66
2022/10/20 04:46:25;;;;;;;;;;;;;;;21.67;58.50;101381.56;7405230;19;1312;-66
2022/10/20 04:48:54;;;;;;;;;;;;;;;21.50;59.01;101381.22;7406092;19;1183;-66
2022/10/20 04:51:24;;;;;;;;;;;;;;;21.38;59.27;101393.03;7407018;19;1535;-64
2022/10/20 04:53:53;;;;;;;;;;;;;;;21.72;58.27;101396.28;7403918;19;1406;-63
2022/10/20 04:56:22;;;;;;;;;;;;;;;23.79;55.26;101400.22;7404546;19;1239;-66
2022/10/20 04:58:51;;;;;;;;;;;;;;;22.04;57.54;101416.75;7405263;19;1638;-68
2022/10/20 05:01:20;;;;;;;;;;;;;;;21.56;58.52;101428.25;7402405;19;1846;-67
2022/10/20 05:03:48;;;;;;;;;;;;;;;21.37;59.12;101434.41;7405141;19;1406;-67
2022/10/20 05:06:17;;;;;;;;;;;;;;;21.68;58.53;101420.94;7406825;19;1411;-65
2022/10/20 05:08:50;;;;;;;;;;;;;;;21.82;58.08;101440.22;7404174;19;1684;-65
2022/10/20 05:11:19;;;;;;;;;;;;;;;21.57;58.61;101435.38;7405478;19;1509;-69
2022/10/20 05:13:47;;;;;;;;;;;;;;;21.54;58.31;101443.69;7405589;19;1525;-69
2022/10/20 05:16:16;;;;;;;;;;;;;;;21.45;59.15;101448.91;7405147;19;1413;-68
2022/10/20 05:18:45;;;;;;;;;;;;;;;21.87;58.04;101457.84;7403071;19;1449;-65
2022/10/20 05:21:14;;;;;;;;;;;;;;;21.83;57.97;101468.03;7405841;19;1857;-64
2022/10/20 05:23:43;;;;;;;;;;;;;;;21.69;58.19;101477.34;7404201;19;1739;-72
2022/10/20 05:26:14;;;;;;;;;;;;;;;21.50;58.81;101498.78;7405039;19;1645;-70
2022/10/20 05:28:45;;;;;;;;;;;;;;;21.67;58.15;101502.69;7404334;19;1335;-71
2022/10/20 05:31:13;;;;;;;;;;;;;;;21.79;57.61;101510.53;7405684;19;1625;-63
2022/10/20 05:33:45;;;;;;;;;;;;;;;21.68;56.34;101507.91;7402364;19;1628;-71
2022/10/20 05:36:14;;;;;;;;;;;;;;;21.43;58.32;101507.38;7403827;19;1579;-70
2022/10/20 05:38:43;;;;;;;;;;;;;;;21.19;58.84;101507.63;6887101;19;10000218;-70
2022/10/20 05:41:15;;;;;;;;;;;;;;;21.54;58.03;101519.03;7395198;19;1887;-64
2022/10/20 05:43:43;;;;;;;;;;;;;;;21.81;57.58;101531.94;7396847;19;1351;-64
2022/10/20 05:46:11;;;;;;;;;;;;;;;21.81;57.48;101524.69;7397413;19;1272;-70
2022/10/20 05:48:40;;;;;;;;;;;;;;;21.57;58.35;101532.25;7399967;19;1335;-64
2022/10/20 05:51:09;;;;;;;;;;;;;;;21.33;58.71;101525.28;7398952;19;1606;-64
2022/10/20 05:53:37;;;;;;;;;;;;;;;21.23;59.12;101529.75;7397288;19;1561;-64
2022/10/20 05:56:05;;;;;;;;;;;;;;;21.78;57.77;101545.66;7396566;19;1629;-64
2022/10/20 05:58:37;;;;;;;;;;;;;;;22.10;56.97;101561.63;7400050;19;1560;-64
2022/10/20 06:01:06;;;;;;;;;;;;;;;21.98;57.42;101568.13;7397815;19;1452;-64
2022/10/20 06:03:35;;;;;;;;;;;;;;;21.65;58.29;101575.50;7397028;19;1727;-64
2022/10/20 06:06:03;;;;;;;;;;;;;;;21.44;58.50;101575.50;7392969;19;1940;-71
2022/10/20 06:08:32;;;;;;;;;;;;;;;22.01;57.21;101584.03;7395895;19;1555;-64
2022/10/20 06:11:04;;;;;;;;;;;;;;;22.11;56.50;101574.13;7397366;19;1864;-63
2022/10/20 06:13:33;;;;;;;;;;;;;;;21.93;56.64;101589.25;7396462;19;1283;-64
2022/10/20 06:16:08;;;;;;;;;;;;;;;21.60;57.78;101601.94;7395438;19;1503;-70
2022/10/20 06:18:37;;;;;;;;;;;;;;;21.55;57.18;101594.28;7398867;19;1311;-63
2022/10/20 06:21:07;;;;;;;;;;;;;;;21.94;56.28;101583.69;7403416;19;937;-63
2022/10/20 06:23:35;;;;;;;;;;;;;;;22.07;55.70;101606.88;7399950;19;1671;-63
2022/10/20 06:26:04;;;;;;;;;;;;;;;21.91;55.93;101593.91;7400529;19;1428;-63
2022/10/20 06:28:33;;;;;;;;;;;;;;;21.64;56.40;101592.63;7401574;19;1569;-63
2022/10/20 06:31:02;;;;;;;;;;;;;;;21.52;56.43;101593.69;7401316;19;1856;-63
2022/10/20 06:33:33;;;;;;;;;;;;;;;21.95;55.31;101598.03;7401713;19;1534;-70
2022/10/20 06:36:02;;;;;;;;;;;;;;;22.11;54.78;101579.53;7402780;19;1500;-70
2022/10/20 06:38:30;;;;;;;;;;;;;;;22.05;55.16;101596.22;7402199;19;1851;-68
2022/10/20 06:41:02;;;;;;;;;;;;;;;21.94;55.36;101599.00;7402605;19;1597;-70
2022/10/20 06:43:30;;;;;;;;;;;;;;;21.80;55.24;101584.91;7404397;19;1628;-70
2022/10/20 06:46:02;;;;;;;;;;;;;;;21.81;55.23;101600.09;7405388;19;1775;-74
2022/10/20 06:48:34;;;;;;;;;;;;;;;21.65;53.57;101607.78;7406083;19;1527;-72
2022/10/20 06:51:03;;;;;;;;;;;;;;;21.57;55.59;101591.47;7410842;19;1837;-74
2022/10/20 06:53:32;;;;;;;;;;;;;;;21.48;56.16;101594.94;7411081;19;1694;-74
2022/10/20 06:56:02;;;;;;;;;;;;;;;21.40;56.28;101587.47;7411986;19;1494;-74
2022/10/20 06:58:31;;;;;;;;;;;;;;;21.45;55.57;101593.38;7410231;19;1314;-74
2022/10/20 07:01:00;;;;;;;;;;;;;;;21.48;55.27;101592.25;7408230;19;1592;-74
2022/10/20 07:03:28;;;;;;;;;;;;;;;21.48;56.37;101592.25;7407248;19;1646;-72
2022/10/20 07:05:59;;;;;;;;;;;;;;;21.46;54.23;101595.06;7409299;19;1544;-71
2022/10/20 07:08:29;;;;;;;;;;;;;;;21.39;54.38;101604.63;7410255;19;1617;-72
2022/10/20 07:11:04;;;;;;;;;;;;;;;21.23;53.78;101589.78;7409846;19;1865;-72
2022/10/20 07:13:33;;;;;;;;;;;;;;;21.32;54.95;101598.03;7410933;19;1684;-74
2022/10/20 07:16:01;;;;;;;;;;;;;;;21.36;52.96;101615.63;7410089;19;1519;-63
2022/10/20 07:18:30;;;;;;;;;;;;;;;21.31;52.34;101618.72;7410085;19;1593;-76
2022/10/20 07:21:02;;;;;;;;;;;;;;;21.22;51.92;101608.72;7410682;19;1380;-75
2022/10/20 07:23:31;;;;;;;;;;;;;;;21.03;51.68;101621.03;7410032;19;1385;-69
2022/10/20 07:26:03;;;;;;;;;;;;;;;21.03;49.96;101615.66;7406339;19;1566;-70
2022/10/20 07:28:32;;;;;;;;;;;;;;;21.05;50.26;101608.31;7407813;19;1581;-79
2022/10/20 07:31:04;;;;;;;;;;;;;;;21.09;54.11;101613.44;7408268;19;1848;-64
2022/10/20 07:33:32;;;;;;;;;;;;;;;21.18;52.74;101607.28;7409347;19;1424;-69
2022/10/20 07:36:03;;;;;;;;;;;;;;;21.13;53.22;101637.28;7410185;19;1601;-65
2022/10/20 07:38:31;;;;;;;;;;;;;;;21.14;53.18;101616.59;7409593;19;1577;-62
2022/10/20 07:41:03;;;;;;;;;;;;;;;21.21;53.04;101618.66;7407495;19;1594;-63
2022/10/20 07:43:31;;;;;;;;;;;;;;;21.34;52.57;101622.97;7406733;19;1452;-66
2022/10/20 07:45:59;;;;;;;;;;;;;;;21.22;52.78;101622.19;7407810;19;1594;-66
2022/10/20 07:48:28;;;;;;;;;;;;;;;21.14;53.18;101617.44;7408130;19;1427;-63
2022/10/20 07:50:56;;;;;;;;;;;;;;;21.10;52.93;101615.16;7407283;19;1865;-62
2022/10/20 07:53:27;;;;;;;;;;;;;;;20.95;52.11;101620.84;7406196;19;1560;-66
2022/10/20 07:55:55;;;;;;;;;;;;;;;21.03;54.34;101614.81;7407497;19;1527;-62
2022/10/20 07:58:23;;;;;;;;;;;;;;;20.71;55.69;101614.78;7406031;19;1595;-64
2022/10/20 08:00:52;;;;;;;;;;;;;;;20.53;54.07;101606.34;7405351;19;1297;-62
2022/10/20 08:03:20;;;;;;;;;;;;;;;20.59;51.08;101616.63;7407013;19;1601;-62
2022/10/20 08:05:48;;;;;;;;;;;;;;;20.57;49.79;101614.06;7408847;19;1486;-62
2022/10/20 08:08:17;;;;;;;;;;;;;;;20.54;48.50;101611.63;7405925;19;1633;-62
2022/10/20 08:10:48;;;;;;;;;;;;;;;20.58;47.87;101621.13;7407385;19;1862;-63
2022/10/20 08:13:16;;;;;;;;;;;;;;;20.63;47.52;101635.09;7409673;19;1456;-68
2022/10/20 08:15:44;;;;;;;;;;;;;;;20.59;46.82;101622.00;7405593;19;1369;-63
2022/10/20 08:18:13;;;;;;;;;;;;;;;20.61;47.26;101618.25;7407535;19;1395;-63
2022/10/20 08:20:41;;;;;;;;;;;;;;;20.70;47.16;101640.81;7409172;19;1472;-63
2022/10/20 08:23:10;;;;;;;;;;;;;;;20.56;46.58;101617.72;7406391;19;1325;-63
2022/10/20 08:25:41;;;;;;;;;;;;;;;20.58;46.52;101637.25;7406169;19;1656;-72
2022/10/20 08:28:12;;;;;;;;;;;;;;;20.54;46.79;101624.19;7406837;19;1503;-63
2022/10/20 08:30:40;;;;;;;;;;;;;;;20.78;48.01;101621.38;7406807;19;1873;-64
2022/10/20 08:33:08;;;;;;;;;;;;;;;21.01;47.84;101635.59;7409095;19;1533;-64
2022/10/20 08:35:36;;;;;;;;;;;;;;;21.01;47.64;101623.00;7408129;19;1400;-61
2022/10/20 08:38:06;;;;;;;;;;;;;;;21.14;47.75;101611.22;7405269;19;1342;-62
2022/10/20 08:40:36;;;;;;;;;;;;;;;21.18;47.96;101621.59;7404117;19;1577;-64
2022/10/20 08:43:04;;;;;;;;;;;;;;;21.05;47.93;101635.22;7405502;19;1436;-64
2022/10/20 08:45:36;;;;;;;;;;;;;;;20.98;47.05;101633.16;7403018;19;1791;-64
2022/10/20 08:48:05;;;;;;;;;;;;;;;20.99;48.69;101646.50;7406541;19;1419;-65
2022/10/20 08:50:33;;;;;;;;;;;;;;;21.05;47.32;101643.28;7406906;19;1861;-65
2022/10/20 08:53:02;;;;;;;;;;;;;;;21.08;48.20;101649.38;7405402;19;1561;-64
2022/10/20 08:55:32;;;;;;;;;;;;;;;21.10;48.28;101642.03;7405388;19;1350;-63
2022/10/20 08:58:01;;;;;;;;;;;;;;;21.25;48.28;101656.91;7404431;19;1225;-61
2022/10/20 09:00:31;;;;;;;;;;;;;;;21.24;48.67;101639.03;7401091;19;1417;-61
2022/10/20 09:03:12;;;;;;;;;;;;;;;21.30;48.75;101633.16;7403735;19;1551;-61
2022/10/20 09:05:43;;;;;;;;;;;;;;;21.36;48.84;101638.00;7404092;19;1571;-63
2022/10/20 09:08:11;;;;;;;;;;;;;;;21.39;48.92;101645.81;7404502;19;1540;-66
2022/10/20 09:10:42;;;;;;;;;;;;;;;21.43;49.46;101646.47;7405113;19;1846;-65
2022/10/20 09:13:17;;;;;;;;;;;;;;;21.39;49.58;101643.13;7404571;19;1648;-63
2022/10/20 09:15:45;;;;;;;;;;;;;;;21.31;50.43;101647.44;7405506;19;1270;-62
2022/10/20 09:18:17;;;;;;;;;;;;;;;21.32;50.86;101638.41;7404455;19;1742;-62
2022/10/20 09:20:49;;;;;;;;;;;;;;;21.38;50.99;101651.34;7404784;19;1665;-66
2022/10/20 09:23:18;;;;;;;;;;;;;;;21.44;50.75;101667.84;7402271;19;1650;-64
2022/10/20 09:25:47;;;;;;;;;;;;;;;21.36;50.59;101651.47;7401696;19;1399;-64
2022/10/20 09:28:22;;;;;;;;;;;;;;;21.25;50.48;101647.00;7400933;19;1327;-65
2022/10/20 09:30:50;;;;;;;;;;;;;;;21.24;50.84;101676.72;7400311;19;1870;-65
2022/10/20 09:33:30;;;;;;;;;;;;;;;21.19;50.51;101668.19;7402868;19;1521;-65
2022/10/20 09:36:03;;;;;;;;;;;;;;;21.30;50.58;101664.59;7404297;19;1310;-65
2022/10/20 09:38:32;;;;;;;;;;;;;;;21.29;50.83;101655.66;7402932;19;1509;-64
2022/10/20 09:41:05;;;;;;;;;;;;;;;21.22;51.21;101651.78;7403989;19;1551;-64
2022/10/20 09:43:34;;;;;;;;;;;;;;;21.29;50.76;101655.66;7403736;19;1145;-64
2022/10/20 09:46:06;;;;;;;;;;;;;;;21.23;50.76;101648.13;7403348;19;1775;-62
2022/10/20 09:48:38;;;;;;;;;;;;;;;21.34;51.17;101653.44;7399388;19;1208;-63
2022/10/20 09:51:07;;;;;;;;;;;;;;;21.46;50.22;101648.88;7404641;19;1858;-61
2022/10/20 09:53:37;;;;;;;;;;;;;;;21.53;51.08;101654.59;7401524;19;1247;-65
2022/10/20 09:56:06;;;;;;;;;;;;;;;21.48;51.07;101649.59;7404103;19;1389;-61
2022/10/20 09:58:36;;;;;;;;;;;;;;;21.45;51.21;101642.66;7404683;19;1220;-61
2022/10/20 10:01:06;;;;;;;;;;;;;;;21.43;52.27;101647.31;7401148;19;1386;-69
2022/10/20 10:03:43;;;;;;;;;;;;;;;21.48;52.24;101646.06;7404373;19;1691;-68
2022/10/20 10:06:22;;;;;;;;;;;;;;;21.45;52.35;101644.50;7404718;19;1374;-66
2022/10/20 10:08:50;;;;;;;;;;;;;;;21.43;52.01;101633.00;7401502;19;1445;-67
2022/10/20 10:11:19;;;;;;;;;;;;;;;21.45;52.42;101649.88;7403533;19;1851;-67
2022/10/20 10:13:49;;;;;;;;;;;;;;;21.44;52.97;101632.84;7403604;19;1255;-68
2022/10/20 10:16:18;;;;;;;;;;;;;;;21.49;52.36;101639.69;7403853;19;1234;-63
2022/10/20 10:18:58;;;;;;;;;;;;;;;21.55;51.91;101631.97;7404206;19;1540;-62
2022/10/20 10:21:27;;;;;;;;;;;;;;;21.57;52.43;101642.59;7403904;19;1271;-60
2022/10/20 10:23:56;;;;;;;;;;;;;;;21.60;52.21;101628.84;7403450;19;1621;-60
2022/10/20 10:26:38;;;;;;;;;;;;;;;21.59;52.33;101629.84;7412393;19;1296;-60
2022/10/20 10:29:19;;;;;;;;;;;;;;;21.59;52.11;101624.47;7410951;19;1411;-60
2022/10/20 10:31:51;;;;;;;;;;;;;;;21.40;51.16;101623.31;7397805;19;1859;-60
2022/10/20 10:34:39;;;;;;;;;;;;;;;21.41;52.11;101632.25;7402455;19;1731;-61
2022/10/20 10:37:07;;;;;;;;;;;;;;;21.45;52.05;101614.91;7399781;19;1532;-61
2022/10/20 10:39:37;;;;;;;;;;;;;;;21.58;51.31;101620.06;7403380;19;1590;-66
2022/10/20 10:42:11;;;;;;;;;;;;;;;21.56;51.45;101622.03;7408051;19;1560;-62
2022/10/20 10:44:45;;;;;;;;;;;;;;;21.60;51.90;101610.03;7405451;19;1436;-68
2022/10/20 10:47:24;;;;;;;;;;;;;;;21.61;51.27;101614.44;7405624;19;1486;-63
2022/10/20 10:50:00;;;;;;;;;;;;;;;21.60;51.22;101608.16;7402215;19;1389;-63
2022/10/20 10:52:35;;;;;;;;;;;;;;;21.58;51.61;101593.16;7401984;19;1846;-65
2022/10/20 10:55:08;;;;;;;;;;;;;;;21.68;51.65;101612.91;7403972;19;1387;-63
2022/10/20 10:57:42;;;;;;;;;;;;;;;21.64;52.00;101593.47;7403074;19;1316;-67
2022/10/20 11:00:16;;;;;;;;;;;;;;;21.61;51.83;101595.59;7404683;19;1495;-69
2022/10/20 11:02:57;;;;;;;;;;;;;;;21.62;51.42;101587.34;7403511;19;1636;-64
2022/10/20 11:05:40;;;;;;;;;;;;;;;21.62;51.59;101590.06;7403890;19;1265;-63
2022/10/20 11:08:19;;;;;;;;;;;;;;;21.61;51.73;101574.06;7400229;19;1875;-63
2022/10/20 11:10:52;;;;;;;;;;;;;;;21.64;51.64;101576.47;7403985;19;1633;-68
2022/10/20 11:13:25;;;;;;;;;;;;;;;21.61;51.95;101577.59;7400438;19;1853;-61
2022/10/20 11:15:59;;;;;;;;;;;;;;;21.63;52.22;101577.47;7397941;19;1300;-63
2022/10/20 11:18:38;;;;;;;;;;;;;;;21.60;52.30;101581.25;7403304;19;1391;-63
2022/10/20 11:21:14;;;;;;;;;;;;;;;21.59;52.66;101570.66;7403245;19;1408;-59
2022/10/20 11:23:56;;;;;;;;;;;;;;;21.54;52.74;101559.41;7402916;19;1748;-64
2022/10/20 11:26:26;;;;;;;;;;;;;;;21.50;52.46;101574.13;7402998;19;1546;-61
2022/10/20 11:28:57;;;;;;;;;;;;;;;21.38;52.36;101560.69;7403276;19;1713;-61
2022/10/20 11:31:28;;;;;;;;;;;;;;;21.36;52.69;101549.22;7401204;19;1862;-61
2022/10/20 11:33:59;;;;;;;;;;;;;;;21.38;52.74;101566.06;7401757;19;1575;-61
2022/10/20 11:36:33;;;;;;;;;;;;;;;21.35;52.96;101565.50;7409127;19;1556;-62
2022/10/20 11:39:05;;;;;;;;;;;;;;;21.32;52.89;101545.09;7409737;19;1447;-61
2022/10/20 11:41:36;;;;;;;;;;;;;;;21.32;53.32;101555.00;7411062;19;1647;-62
2022/10/20 11:44:08;;;;;;;;;;;;;;;21.29;52.94;101553.44;7410432;19;1621;-62
2022/10/20 11:46:39;;;;;;;;;;;;;;;21.34;53.18;101564.63;7409566;19;1627;-62
2022/10/20 11:49:11;;;;;;;;;;;;;;;21.31;53.63;101562.22;7409016;19;1601;-61
2022/10/20 11:51:52;;;;;;;;;;;;;;;21.33;53.37;101568.34;7410187;19;1850;-60
2022/10/20 11:54:34;;;;;;;;;;;;;;;21.38;53.26;101549.94;7409310;19;1713;-65
2022/10/20 11:57:09;;;;;;;;;;;;;;;21.35;53.02;101536.75;7405393;19;1499;-62
2022/10/20 11:59:55;;;;;;;;;;;;;;;21.36;53.06;101541.16;7408869;19;1205;-63
2022/10/20 12:02:31;;;;;;;;;;;;;;;21.36;52.62;101554.59;7405639;19;1274;-65
2022/10/20 12:05:14;;;;;;;;;;;;;;;21.41;53.16;101549.69;7409352;19;1376;-65
2022/10/20 12:08:00;;;;;;;;;;;;;;;21.38;52.88;101532.94;7408742;19;1522;-67
2022/10/20 12:10:45;;;;;;;;;;;;;;;21.40;52.90;101521.06;7409162;19;1535;-64
2022/10/20 12:13:23;;;;;;;;;;;;;;;21.42;52.69;101543.31;7404262;19;1860;-62
2022/10/20 12:15:52;;;;;;;;;;;;;;;21.50;53.39;101536.44;7406564;19;1484;-61
2022/10/20 12:18:25;;;;;;;;;;;;;;;21.45;53.19;101540.41;7408151;19;1628;-61
2022/10/20 12:20:55;;;;;;;;;;;;;;;21.48;53.22;101538.41;7405811;19;1570;-64
2022/10/20 12:23:38;;;;;;;;;;;;;;;21.38;53.20;101533.78;7406187;19;1679;-61
2022/10/20 12:26:31;;;;;;;;;;;;;;;21.44;53.55;101532.44;7406317;19;1538;-62
2022/10/20 12:29:00;;;;;;;;;;;;;;;21.32;53.18;101528.94;7405623;19;1691;-61
2022/10/20 12:31:50;;;;;;;;;;;;;;;21.35;54.66;101533.22;7406375;19;1634;-59
2022/10/20 12:34:25;;;;;;;;;;;;;;;21.34;53.83;101521.59;7404811;19;1827;-68
2022/10/20 12:37:08;;;;;;;;;;;;;;;21.40;53.83;101536.34;7398197;19;1383;-61
2022/10/20 12:39:37;;;;;;;;;;;;;;;21.34;54.10;101532.34;7407510;19;1414;-60
2022/10/20 12:42:08;;;;;;;;;;;;;;;21.41;54.29;101533.53;7408515;19;1638;-61
2022/10/20 12:44:43;;;;;;;;;;;;;;;21.53;54.08;101531.66;7408087;19;1712;-64
2022/10/20 12:47:12;;;;;;;;;;;;;;;21.55;54.65;101540.44;7406989;19;1500;-61
2022/10/20 12:49:42;;;;;;;;;;;;;;;21.53;54.73;101537.03;7406867;19;1700;-64
2022/10/20 12:52:18;;;;;;;;;;;;;;;21.44;55.33;101527.06;7407250;19;1852;-64
2022/10/20 12:54:47;;;;;;;;;;;;;;;21.41;54.75;101522.78;7407148;19;1381;-66
2022/10/20 12:57:34;;;;;;;;;;;;;;;21.41;55.23;101536.22;7408597;19;1529;-61
2022/10/20 13:00:02;;;;;;;;;;;;;;;21.35;56.26;101523.31;7407449;19;1673;-64
2022/10/20 13:02:34;;;;;;;;;;;;;;;21.26;54.57;101540.25;7405217;19;1632;-61
2022/10/20 13:05:04;;;;;;;;;;;;;;;21.16;54.92;101545.53;7406949;19;1368;-60
2022/10/20 13:07:47;;;;;;;;;;;;;;;21.13;54.95;101544.94;7405922;19;1624;-61
2022/10/20 13:10:31;;;;;;;;;;;;;;;21.11;55.00;101546.91;7406459;19;1643;-60
2022/10/20 13:13:15;;;;;;;;;;;;;;;21.07;54.82;101546.34;7405530;19;1865;-68
2022/10/20 13:15:49;;;;;;;;;;;;;;;21.03;54.79;101544.91;7405379;19;1561;-62
2022/10/20 13:18:20;;;;;;;;;;;;;;;21.02;54.70;101538.66;7407390;19;1595;-62